createdAt,value
2023-02-09T00:03:07.987Z,97.30
2023-02-09T00:08:16.975Z,96.60
2023-02-09T00:13:33.732Z,99.60
2023-02-09T00:18:39.547Z,99.90
2023-02-09T00:23:48.059Z,99.90
2023-02-09T00:28:56.543Z,99.90
2023-02-09T00:34:08.736Z,99.90
2023-02-09T00:39:29.851Z,99.90
2023-02-09T00:44:36.107Z,99.90
2023-02-09T00:49:41.163Z,99.90
2023-02-09T00:54:48.254Z,99.90
2023-02-09T00:59:56.802Z,99.90
2023-02-09T01:05:22.573Z,99.90
2023-02-09T01:10:29.821Z,99.90
2023-02-09T01:15:40.986Z,99.50
2023-02-09T01:20:46.271Z,99.90
2023-02-09T01:26:04.583Z,99.90
2023-02-09T01:31:26.054Z,99.90
2023-02-09T01:36:30.943Z,99.90
2023-02-09T01:41:41.623Z,99.90
2023-02-09T01:46:48.375Z,99.90
2023-02-09T01:51:55.825Z,99.90
2023-02-09T01:57:10.234Z,99.90
2023-02-09T02:02:19.368Z,99.90
2023-02-09T02:07:28.953Z,99.90
2023-02-09T02:12:36.573Z,99.90
2023-02-09T02:17:54.648Z,99.90
2023-02-09T02:23:07.538Z,99.90
2023-02-09T02:29:10.926Z,99.90
2023-02-09T02:34:20.672Z,99.90
2023-02-09T02:39:28.989Z,99.90
2023-02-09T02:44:35.766Z,99.90
2023-02-09T02:49:43.694Z,99.90
2023-02-09T02:54:51.987Z,99.90
2023-02-09T02:59:59.834Z,99.90
2023-02-09T03:05:11.318Z,99.90
2023-02-09T03:10:30.108Z,99.90
2023-02-09T03:15:37.507Z,99.90
2023-02-09T03:20:45.101Z,99.90
2023-02-09T03:25:51.411Z,99.90
2023-02-09T03:30:56.391Z,99.90
2023-02-09T03:36:03.479Z,99.90
2023-02-09T03:41:08.141Z,99.90
2023-02-09T03:46:13.217Z,99.90
2023-02-09T03:51:19.141Z,99.90
2023-02-09T03:56:25.258Z,99.90
2023-02-09T04:01:29.311Z,99.90
2023-02-09T04:06:45.189Z,99.90
2023-02-09T04:11:53.623Z,99.90
2023-02-09T04:17:00.125Z,99.90
2023-02-09T04:22:10.587Z,99.90
2023-02-09T04:27:15.226Z,99.90
2023-02-09T04:32:18.804Z,99.90
2023-02-09T04:37:26.599Z,99.90
2023-02-09T04:42:34.639Z,99.90
2023-02-09T04:47:42.015Z,99.90
2023-02-09T04:52:53.016Z,99.90
2023-02-09T04:58:20.393Z,99.90
2023-02-09T05:03:28.054Z,99.90
2023-02-09T05:08:42.528Z,99.90
2023-02-09T05:13:47.175Z,99.90
2023-02-09T05:18:52.811Z,99.90
2023-02-09T05:24:03.098Z,99.90
2023-02-09T05:29:09.419Z,99.90
2023-02-09T05:34:13.572Z,99.90
2023-02-09T05:39:20.210Z,99.90
2023-02-09T05:44:54.140Z,99.90
2023-02-09T05:49:57.972Z,99.90
2023-02-09T05:55:05.906Z,99.90
2023-02-09T06:00:12.683Z,99.90
2023-02-09T06:05:17.025Z,99.90
2023-02-09T06:10:24.057Z,99.90
2023-02-09T06:15:28.325Z,99.90
2023-02-09T06:20:34.749Z,99.90
2023-02-09T06:25:42.617Z,99.90
2023-02-09T06:30:46.988Z,99.90
2023-02-09T06:35:52.511Z,99.90
2023-02-09T06:40:57.601Z,99.90
2023-02-09T06:46:06.098Z,99.90
2023-02-09T06:51:11.140Z,99.90
2023-02-09T06:56:16.662Z,99.90
2023-02-09T07:01:20.018Z,99.90
2023-02-09T07:06:23.377Z,99.90
2023-02-09T07:11:28.433Z,99.90
2023-02-09T07:16:32.045Z,99.90
2023-02-09T07:21:35.335Z,99.90
2023-02-09T07:26:39.973Z,99.90
2023-02-09T07:31:44.290Z,99.90
2023-02-09T07:36:47.837Z,99.90
2023-02-09T07:41:53.461Z,99.90
2023-02-09T07:46:58.980Z,99.90
2023-02-09T07:52:02.177Z,99.90
2023-02-09T07:57:07.042Z,99.90
2023-02-09T08:02:12.127Z,99.90
2023-02-09T08:07:15.828Z,99.90
2023-02-09T08:12:43.704Z,99.90
2023-02-09T08:17:47.204Z,99.90
2023-02-09T08:22:51.607Z,99.90
2023-02-09T08:27:56.625Z,99.90
2023-02-09T08:32:59.951Z,99.90
2023-02-09T08:38:03.457Z,99.90
2023-02-09T08:43:14.894Z,99.90
2023-02-09T08:48:20.756Z,99.90
2023-02-09T08:53:28.107Z,99.90
2023-02-09T08:58:35.953Z,99.10
2023-02-09T09:03:43.313Z,97.60
2023-02-09T09:08:50.370Z,97.00
2023-02-09T09:14:01.274Z,97.50
2023-02-09T09:19:07.165Z,96.60
2023-02-09T09:24:15.977Z,95.80
2023-02-09T09:29:25.067Z,95.10
2023-02-09T09:40:42.545Z,90.60
2023-02-09T09:46:22.168Z,91.70
2023-02-09T09:51:47.409Z,92.50
2023-02-09T09:56:58.851Z,91.90
2023-02-09T10:02:33.789Z,90.90
2023-02-09T10:07:49.928Z,91.20
2023-02-09T10:13:05.534Z,92.20
2023-02-09T10:18:33.386Z,90.60
2023-02-09T10:23:52.268Z,91.80
2023-02-09T10:29:06.543Z,88.50
2023-02-09T10:34:25.157Z,89.40
2023-02-09T10:39:33.184Z,86.80
2023-02-09T10:44:41.093Z,85.70
2023-02-09T10:49:53.265Z,88.20
2023-02-09T10:55:00.230Z,85.40
2023-02-09T11:00:26.486Z,86.50
2023-02-09T11:05:39.781Z,84.10
2023-02-09T11:10:47.003Z,83.90
2023-02-09T11:16:27.926Z,81.70
2023-02-09T11:21:45.337Z,82.30
2023-02-09T11:26:52.198Z,82.50
2023-02-09T11:32:23.206Z,81.00
2023-02-09T11:37:37.012Z,76.90
2023-02-09T11:42:59.234Z,80.20
2023-02-09T11:48:07.044Z,74.50
2023-02-09T11:53:19.084Z,76.30
2023-02-09T11:58:47.111Z,74.00
2023-02-09T12:04:14.223Z,72.90
2023-02-09T12:09:48.378Z,73.10
2023-02-09T12:15:08.877Z,72.90
2023-02-09T12:20:31.734Z,76.50
2023-02-09T12:25:55.277Z,76.90
2023-02-09T12:31:19.595Z,73.40
2023-02-09T12:36:33.945Z,74.90
2023-02-09T12:42:23.092Z,71.30
2023-02-09T12:48:03.972Z,70.40
2023-02-09T12:53:59.344Z,71.10
2023-02-09T12:59:30.133Z,70.50
2023-02-09T13:04:42.128Z,70.00
2023-02-09T13:10:11.770Z,71.10
2023-02-09T13:15:20.766Z,67.00
2023-02-09T13:21:03.865Z,68.30
2023-02-09T13:26:23.949Z,67.00
2023-02-09T13:31:44.219Z,68.50
2023-02-09T13:36:57.717Z,68.70
2023-02-09T13:42:07.409Z,67.70
2023-02-09T13:47:23.914Z,67.70
2023-02-09T13:52:37.703Z,70.10
2023-02-09T13:57:44.714Z,67.00
2023-02-09T14:02:49.709Z,66.10
2023-02-09T14:07:56.084Z,66.90
2023-02-09T14:13:01.556Z,68.00
2023-02-09T14:18:17.672Z,65.50
2023-02-09T14:23:27.943Z,65.70
2023-02-09T14:28:32.205Z,66.90
2023-02-09T14:33:38.042Z,65.60
2023-02-09T14:38:43.465Z,67.90
2023-02-09T14:43:46.913Z,70.10
2023-02-09T14:48:50.241Z,66.60
2023-02-09T14:53:55.992Z,65.60
2023-02-09T14:58:59.905Z,68.80
2023-02-09T15:04:03.350Z,66.10
2023-02-09T15:09:08.306Z,66.40
2023-02-09T15:14:13.203Z,63.90
2023-02-09T15:19:18.036Z,66.60
2023-02-09T15:24:22.725Z,68.90
2023-02-09T15:29:26.828Z,67.00
2023-02-09T15:34:30.201Z,66.70
2023-02-09T15:39:35.034Z,68.60
2023-02-09T15:44:55.789Z,71.10
2023-02-09T15:49:58.930Z,69.50
2023-02-09T15:55:04.274Z,71.70
2023-02-09T16:00:16.162Z,73.10
2023-02-09T16:05:24.049Z,73.00
2023-02-09T16:10:29.872Z,72.10
2023-02-09T16:15:32.886Z,72.90
2023-02-09T16:20:36.444Z,73.30
2023-02-09T16:25:41.250Z,74.10
2023-02-09T16:30:49.469Z,74.40
2023-02-09T16:36:03.674Z,74.60
2023-02-09T16:41:30.965Z,76.10
2023-02-09T16:46:34.369Z,75.90
2023-02-09T16:51:38.573Z,76.10
2023-02-09T16:56:54.076Z,76.30
2023-02-09T17:02:00.134Z,77.60
2023-02-09T17:07:03.723Z,78.50
2023-02-09T17:12:11.989Z,80.70
2023-02-09T17:17:16.615Z,83.40
2023-02-09T17:22:20.530Z,84.70
2023-02-09T17:27:35.610Z,85.30
2023-02-09T17:32:41.608Z,86.30
2023-02-09T17:37:45.929Z,87.10
2023-02-09T17:42:55.236Z,87.90
2023-02-09T17:48:14.971Z,88.70
2023-02-09T17:53:24.385Z,89.20
2023-02-09T17:58:35.720Z,90.00
2023-02-09T18:03:40.010Z,90.50
2023-02-09T18:08:51.683Z,90.50
2023-02-09T18:13:59.173Z,90.70
2023-02-09T18:19:05.279Z,91.20
2023-02-09T18:24:14.638Z,91.40
2023-02-09T18:29:29.641Z,91.60
2023-02-09T18:34:36.211Z,91.50
2023-02-09T18:39:47.065Z,92.00
2023-02-09T18:44:55.382Z,91.90
2023-02-09T18:50:05.672Z,91.90
2023-02-09T18:55:13.458Z,92.40
2023-02-09T19:00:22.513Z,92.30
2023-02-09T19:05:31.444Z,92.50
2023-02-09T19:10:36.348Z,92.90
2023-02-09T19:15:42.587Z,93.00
2023-02-09T19:20:46.553Z,93.30
2023-02-09T19:25:53.362Z,93.90
2023-02-09T19:31:01.429Z,93.70
2023-02-09T19:36:06.856Z,94.20
2023-02-09T19:41:12.592Z,94.40
2023-02-09T19:46:22.947Z,94.70
2023-02-09T19:51:27.232Z,94.80
2023-02-09T19:56:33.910Z,95.00
2023-02-09T20:01:40.235Z,95.10
2023-02-09T20:06:45.261Z,95.20
2023-02-09T20:11:53.987Z,95.40
2023-02-09T20:17:01.723Z,95.40
2023-02-09T20:22:12.796Z,95.20
2023-02-09T20:27:19.153Z,95.40
2023-02-09T20:32:30.356Z,95.30
2023-02-09T20:37:34.314Z,95.10
2023-02-09T20:42:55.782Z,95.50
2023-02-09T20:48:05.033Z,96.40
2023-02-09T20:53:10.510Z,97.40
2023-02-09T20:58:14.836Z,98.00
2023-02-09T21:03:20.369Z,98.00
2023-02-09T21:08:24.406Z,98.30
2023-02-09T21:13:28.939Z,98.90
2023-02-09T21:18:41.560Z,99.20
2023-02-09T21:23:46.304Z,99.60
2023-02-09T21:28:53.927Z,99.10
2023-02-09T21:34:00.057Z,99.30
2023-02-09T21:39:03.805Z,99.90
2023-02-09T21:44:08.085Z,99.90
2023-02-09T21:49:14.313Z,99.90
2023-02-09T21:54:19.327Z,99.90
2023-02-09T21:59:25.906Z,99.90
2023-02-09T22:04:33.531Z,99.90
2023-02-09T22:09:52.226Z,99.90
2023-02-09T22:15:00.263Z,99.90
2023-02-09T22:20:07.197Z,99.90
2023-02-09T22:25:12.931Z,99.90
2023-02-09T22:30:18.262Z,99.90
2023-02-09T22:35:24.773Z,99.90
2023-02-09T22:40:29.605Z,99.90
2023-02-09T22:45:34.437Z,99.90
2023-02-09T22:50:40.069Z,99.90
2023-02-09T22:55:46.644Z,99.90
2023-02-09T23:00:52.362Z,99.90
2023-02-09T23:05:57.526Z,99.90
2023-02-09T23:11:04.631Z,99.90
2023-02-09T23:16:10.623Z,99.90
2023-02-09T23:21:15.961Z,99.90
2023-02-09T23:26:20.031Z,99.90
2023-02-09T23:31:26.103Z,99.90
2023-02-09T23:36:35.133Z,99.90
2023-02-09T23:41:40.336Z,99.90
2023-02-09T23:46:44.978Z,99.90
2023-02-09T23:51:49.972Z,99.90
2023-02-09T23:56:55.788Z,99.90
